PWSweather.com
Personal Weather Stations
Station Observations
DW1039
Liberty & Fairfield Townships, Hamilton, OH 45011

Liberty & Fairfield TownshipsHamilton, OH 45011

Lat: 39.3933, Lon: -84.477

Elevation: 780

Station Type: Davis Vantage Pro2 (Daytime Fan Aspirated)

http://www.lfweathercenter.com/

High Low Average
Temperature 53.6°F12.0°F 40.2°F4.6°F 47.7°F8.7°F
Dew Point 44.7°F7.1°F 36.0°F2.2°F 41.2°F5.1°F
Winds 9.0 mph N14.5 mph N Calm Calm 1.8 mph 2.9 mph
Wind Gusts 12.0 mph19.3 mph -- 6.2 mph10.0 mph
Humidity 86% 70% 78%
Pressure 30.34 in1027.40 in 30.20 in1022.70 in -
Precipitation 0.00 in0.00 in - -
Hour Temp Dew Point Humidity Winds Wind Gusts Pressure Precip Precip Rate Daily Precip Total
12:00 AM 46.8°F8.2°C 40.0°F4.4°C 77% 3.0 mph N4.8 kmh N 7.0 mph11.3 kmh 30.20 in1022.7 mb 0.00 in0.0 mm 0.00 in/hr0.0 mm/hr 0.00 in0.0 mm
12:10 AM 46.8°F8.2°C 39.7°F4.3°C 76% Calm Calm 5.0 mph8.0 kmh 30.21 in1023.0 mb 0.00 in0.0 mm 0.00 in/hr0.0 mm/hr 0.00 in0.0 mm
12:20 AM 46.7°F8.2°C 39.6°F4.2°C 76% 2.0 mph NNE3.2 kmh NNE 6.0 mph9.7 kmh 30.21 in1023.0 mb 0.00 in0.0 mm 0.00 in/hr0.0 mm/hr 0.00 in0.0 mm
12:30 AM 46.5°F8.1°C 39.4°F4.1°C 76% 2.0 mph N3.2 kmh N 7.0 mph11.3 kmh 30.21 in1023.0 mb 0.00 in0.0 mm 0.00 in/hr0.0 mm/hr 0.00 in0.0 mm
12:40 AM 46.5°F8.1°C 39.4°F4.1°C 76% Calm Calm 6.0 mph9.7 kmh 30.21 in1023.0 mb 0.00 in0.0 mm 0.00 in/hr0.0 mm/hr 0.00 in0.0 mm
12:50 AM 46.5°F8.1°C 39.4°F4.1°C 76% 3.0 mph N4.8 kmh N 9.0 mph14.5 kmh 30.21 in1023.0 mb 0.00 in0.0 mm 0.00 in/hr0.0 mm/hr 0.00 in0.0 mm
01:00 AM 46.4°F8.0°C 39.3°F4.1°C 76% 1.0 mph N1.6 kmh N 9.0 mph14.5 kmh 30.21 in1023.0 mb 0.00 in0.0 mm 0.00 in/hr0.0 mm/hr 0.00 in0.0 mm
01:10 AM 46.4°F8.0°C 39.3°F4.1°C 76% 9.0 mph N14.5 kmh N 9.0 mph14.5 kmh 30.21 in1023.0 mb 0.00 in0.0 mm 0.00 in/hr0.0 mm/hr 0.00 in0.0 mm
01:20 AM 46.3°F7.9°C 39.2°F4.0°C 76% 6.0 mph NNE9.7 kmh NNE 7.0 mph11.3 kmh 30.21 in1023.0 mb 0.00 in0.0 mm 0.00 in/hr0.0 mm/hr 0.00 in0.0 mm
01:30 AM 46.3°F7.9°C 39.2°F4.0°C 76% 4.0 mph N6.4 kmh N 6.0 mph9.7 kmh 30.21 in1023.0 mb 0.00 in0.0 mm 0.00 in/hr0.0 mm/hr 0.00 in0.0 mm
01:40 AM 46.2°F7.9°C 39.1°F3.9°C 76% 3.0 mph NNE4.8 kmh NNE 6.0 mph9.7 kmh 30.21 in1023.0 mb 0.00 in0.0 mm 0.00 in/hr0.0 mm/hr 0.00 in0.0 mm
01:50 AM 46.1°F7.8°C 39.0°F3.9°C 76% 4.0 mph N6.4 kmh N 9.0 mph14.5 kmh 30.21 in1023.0 mb 0.00 in0.0 mm 0.00 in/hr0.0 mm/hr 0.00 in0.0 mm
02:00 AM 46.1°F7.8°C 39.0°F3.9°C 76% Calm Calm 7.0 mph11.3 kmh 30.21 in1023.0 mb 0.00 in0.0 mm 0.00 in/hr0.0 mm/hr 0.00 in0.0 mm
02:10 AM 46.1°F7.8°C 39.0°F3.9°C 76% 3.0 mph NNW4.8 kmh NNW 12.0 mph19.3 kmh 30.21 in1023.0 mb 0.00 in0.0 mm 0.00 in/hr0.0 mm/hr 0.00 in0.0 mm
02:20 AM 46.0°F7.8°C 39.2°F4.0°C 77% 2.0 mph NNE3.2 kmh NNE 6.0 mph9.7 kmh 30.21 in1023.0 mb 0.00 in0.0 mm 0.00 in/hr0.0 mm/hr 0.00 in0.0 mm
02:30 AM 45.9°F7.7°C 39.4°F4.1°C 78% Calm Calm 9.0 mph14.5 kmh 30.21 in1023.0 mb 0.00 in0.0 mm 0.00 in/hr0.0 mm/hr 0.00 in0.0 mm
02:40 AM 45.8°F7.7°C 39.3°F4.1°C 78% Calm Calm 7.0 mph11.3 kmh 30.21 in1023.0 mb 0.00 in0.0 mm 0.00 in/hr0.0 mm/hr 0.00 in0.0 mm
02:50 AM 45.7°F7.6°C 39.6°F4.2°C 79% 3.0 mph N4.8 kmh N 6.0 mph9.7 kmh 30.22 in1023.4 mb 0.00 in0.0 mm 0.00 in/hr0.0 mm/hr 0.00 in0.0 mm
03:00 AM 45.6°F7.6°C 39.5°F4.2°C 79% Calm Calm 8.0 mph12.9 kmh 30.21 in1023.0 mb 0.00 in0.0 mm 0.00 in/hr0.0 mm/hr 0.00 in0.0 mm
03:10 AM 45.6°F7.6°C 39.5°F4.2°C 79% 1.0 mph NNE1.6 kmh NNE 5.0 mph8.0 kmh 30.22 in1023.4 mb 0.00 in0.0 mm 0.00 in/hr0.0 mm/hr 0.00 in0.0 mm
03:20 AM 45.3°F7.4°C 39.5°F4.2°C 80% Calm Calm 10.0 mph16.1 kmh 30.22 in1023.4 mb 0.00 in0.0 mm 0.00 in/hr0.0 mm/hr 0.00 in0.0 mm
03:30 AM 45.2°F7.3°C 39.4°F4.1°C 80% 4.0 mph N6.4 kmh N 10.0 mph16.1 kmh 30.22 in1023.4 mb 0.00 in0.0 mm 0.00 in/hr0.0 mm/hr 0.00 in0.0 mm
03:40 AM 45.1°F7.3°C 39.3°F4.1°C 80% 2.0 mph N3.2 kmh N 7.0 mph11.3 kmh 30.22 in1023.4 mb 0.00 in0.0 mm 0.00 in/hr0.0 mm/hr 0.00 in0.0 mm
03:50 AM 45.0°F7.2°C 39.2°F4.0°C 80% Calm Calm 12.0 mph19.3 kmh 30.22 in1023.4 mb 0.00 in0.0 mm 0.00 in/hr0.0 mm/hr 0.00 in0.0 mm
04:00 AM 45.0°F7.2°C 39.2°F4.0°C 80% Calm Calm 5.0 mph8.0 kmh 30.22 in1023.4 mb 0.00 in0.0 mm 0.00 in/hr0.0 mm/hr 0.00 in0.0 mm
04:10 AM 45.0°F7.2°C 39.5°F4.2°C 81% Calm Calm 7.0 mph11.3 kmh 30.22 in1023.4 mb 0.00 in0.0 mm 0.00 in/hr0.0 mm/hr 0.00 in0.0 mm
04:20 AM 44.9°F7.2°C 39.4°F4.1°C 81% Calm Calm 7.0 mph11.3 kmh 30.22 in1023.4 mb 0.00 in0.0 mm 0.00 in/hr0.0 mm/hr 0.00 in0.0 mm
04:30 AM 44.9°F7.2°C 39.4°F4.1°C 81% 4.0 mph N6.4 kmh N 6.0 mph9.7 kmh 30.23 in1023.7 mb 0.00 in0.0 mm 0.00 in/hr0.0 mm/hr 0.00 in0.0 mm
04:40 AM 44.9°F7.2°C 39.4°F4.1°C 81% Calm Calm 8.0 mph12.9 kmh 30.23 in1023.7 mb 0.00 in0.0 mm 0.00 in/hr0.0 mm/hr 0.00 in0.0 mm
04:50 AM 44.9°F7.2°C 39.4°F4.1°C 81% Calm Calm 7.0 mph11.3 kmh 30.23 in1023.7 mb 0.00 in0.0 mm 0.00 in/hr0.0 mm/hr 0.00 in0.0 mm
05:00 AM 44.9°F7.2°C 39.4°F4.1°C 81% 3.0 mph N4.8 kmh N 7.0 mph11.3 kmh 30.23 in1023.7 mb 0.00 in0.0 mm 0.00 in/hr0.0 mm/hr 0.00 in0.0 mm
05:10 AM 44.9°F7.2°C 39.4°F4.1°C 81% Calm Calm 3.0 mph4.8 kmh 30.24 in1024.0 mb 0.00 in0.0 mm 0.00 in/hr0.0 mm/hr 0.00 in0.0 mm
05:20 AM 44.8°F7.1°C 39.3°F4.1°C 81% 3.0 mph N4.8 kmh N 5.0 mph8.0 kmh 30.24 in1024.0 mb 0.00 in0.0 mm 0.00 in/hr0.0 mm/hr 0.00 in0.0 mm
05:30 AM 44.8°F7.1°C 39.3°F4.1°C 81% Calm Calm 6.0 mph9.7 kmh 30.24 in1024.0 mb 0.00 in0.0 mm 0.00 in/hr0.0 mm/hr 0.00 in0.0 mm
05:40 AM 44.8°F7.1°C 39.3°F4.1°C 81% Calm Calm 5.0 mph8.0 kmh 30.25 in1024.4 mb 0.00 in0.0 mm 0.00 in/hr0.0 mm/hr 0.00 in0.0 mm
05:50 AM 44.7°F7.1°C 39.2°F4.0°C 81% Calm Calm 6.0 mph9.7 kmh 30.25 in1024.4 mb 0.00 in0.0 mm 0.00 in/hr0.0 mm/hr 0.00 in0.0 mm
06:00 AM 44.6°F7.0°C 39.1°F3.9°C 81% 4.0 mph NNE6.4 kmh NNE 7.0 mph11.3 kmh 30.25 in1024.4 mb 0.00 in0.0 mm 0.00 in/hr0.0 mm/hr 0.00 in0.0 mm
06:10 AM 44.4°F6.9°C 38.9°F3.8°C 81% Calm Calm 9.0 mph14.5 kmh 30.26 in1024.7 mb 0.00 in0.0 mm 0.00 in/hr0.0 mm/hr 0.00 in0.0 mm
06:20 AM 44.2°F6.8°C 39.1°F3.9°C 82% 1.0 mph NNW1.6 kmh NNW 5.0 mph8.0 kmh 30.26 in1024.7 mb 0.00 in0.0 mm 0.00 in/hr0.0 mm/hr 0.00 in0.0 mm
06:30 AM 43.8°F6.6°C 38.4°F3.6°C 81% Calm Calm 3.0 mph4.8 kmh 30.27 in1025.1 mb 0.00 in0.0 mm 0.00 in/hr0.0 mm/hr 0.00 in0.0 mm
06:40 AM 43.3°F6.3°C 38.2°F3.4°C 82% Calm Calm -- 30.27 in1025.1 mb 0.00 in0.0 mm 0.00 in/hr0.0 mm/hr 0.00 in0.0 mm
07:10 AM 41.6°F5.3°C 36.8°F2.7°C 83% Calm Calm 2.0 mph3.2 kmh 30.28 in1025.4 mb 0.00 in0.0 mm 0.00 in/hr0.0 mm/hr 0.00 in0.0 mm
07:20 AM 41.3°F5.2°C 36.8°F2.7°C 84% Calm Calm 2.0 mph3.2 kmh 30.28 in1025.4 mb 0.00 in0.0 mm 0.00 in/hr0.0 mm/hr 0.00 in0.0 mm
07:30 AM 40.9°F4.9°C 36.5°F2.5°C 84% Calm Calm 2.0 mph3.2 kmh 30.28 in1025.4 mb 0.00 in0.0 mm 0.00 in/hr0.0 mm/hr 0.00 in0.0 mm
07:40 AM 40.6°F4.8°C 36.2°F2.3°C 84% Calm Calm 2.0 mph3.2 kmh 30.28 in1025.4 mb 0.00 in0.0 mm 0.00 in/hr0.0 mm/hr 0.00 in0.0 mm
07:50 AM 40.4°F4.7°C 36.0°F2.2°C 84% Calm Calm 1.0 mph1.6 kmh 30.29 in1025.7 mb 0.00 in0.0 mm 0.00 in/hr0.0 mm/hr 0.00 in0.0 mm
08:00 AM 40.3°F4.6°C 36.2°F2.3°C 85% Calm Calm 2.0 mph3.2 kmh 30.29 in1025.7 mb 0.00 in0.0 mm 0.00 in/hr0.0 mm/hr 0.00 in0.0 mm
08:10 AM 40.2°F4.6°C 36.1°F2.3°C 85% Calm Calm -- 30.29 in1025.7 mb 0.00 in0.0 mm 0.00 in/hr0.0 mm/hr 0.00 in0.0 mm
08:20 AM 40.2°F4.6°C 36.1°F2.3°C 85% Calm Calm 1.0 mph1.6 kmh 30.30 in1026.1 mb 0.00 in0.0 mm 0.00 in/hr0.0 mm/hr 0.00 in0.0 mm
08:30 AM 40.5°F4.7°C 36.4°F2.4°C 85% Calm Calm -- 30.30 in1026.1 mb 0.00 in0.0 mm 0.00 in/hr0.0 mm/hr 0.00 in0.0 mm
08:40 AM 40.8°F4.9°C 36.9°F2.7°C 86% Calm Calm 3.0 mph4.8 kmh 30.30 in1026.1 mb 0.00 in0.0 mm 0.00 in/hr0.0 mm/hr 0.00 in0.0 mm
08:50 AM 41.4°F5.2°C 37.2°F2.9°C 85% Calm Calm 3.0 mph4.8 kmh 30.31 in1026.4 mb 0.00 in0.0 mm 0.00 in/hr0.0 mm/hr 0.00 in0.0 mm
09:00 AM 41.7°F5.4°C 37.5°F3.1°C 85% Calm Calm 4.0 mph6.4 kmh 30.31 in1026.4 mb 0.00 in0.0 mm 0.00 in/hr0.0 mm/hr 0.00 in0.0 mm
09:10 AM 42.2°F5.7°C 38.0°F3.3°C 85% Calm Calm 7.0 mph11.3 kmh 30.31 in1026.4 mb 0.00 in0.0 mm 0.00 in/hr0.0 mm/hr 0.00 in0.0 mm
09:20 AM 42.6°F5.9°C 38.4°F3.6°C 85% 5.0 mph NNE8.0 kmh NNE 7.0 mph11.3 kmh 30.31 in1026.4 mb 0.00 in0.0 mm 0.00 in/hr0.0 mm/hr 0.00 in0.0 mm
09:30 AM 43.0°F6.1°C 38.8°F3.8°C 85% 5.0 mph NNE8.0 kmh NNE 10.0 mph16.1 kmh 30.31 in1026.4 mb 0.00 in0.0 mm 0.00 in/hr0.0 mm/hr 0.00 in0.0 mm
09:40 AM 43.3°F6.3°C 39.1°F3.9°C 85% 3.0 mph NNE4.8 kmh NNE 7.0 mph11.3 kmh 30.32 in1026.8 mb 0.00 in0.0 mm 0.00 in/hr0.0 mm/hr 0.00 in0.0 mm
09:50 AM 43.7°F6.5°C 39.5°F4.2°C 85% 2.0 mph N3.2 kmh N 5.0 mph8.0 kmh 30.32 in1026.8 mb 0.00 in0.0 mm 0.00 in/hr0.0 mm/hr 0.00 in0.0 mm
10:00 AM 44.1°F6.7°C 39.9°F4.4°C 85% Calm Calm 4.0 mph6.4 kmh 30.32 in1026.8 mb 0.00 in0.0 mm 0.00 in/hr0.0 mm/hr 0.00 in0.0 mm
10:10 AM 44.6°F7.0°C 40.1°F4.5°C 84% 1.0 mph N1.6 kmh N 6.0 mph9.7 kmh 30.32 in1026.8 mb 0.00 in0.0 mm 0.00 in/hr0.0 mm/hr 0.00 in0.0 mm
10:20 AM 45.0°F7.2°C 40.5°F4.7°C 84% Calm Calm 5.0 mph8.0 kmh 30.33 in1027.1 mb 0.00 in0.0 mm 0.00 in/hr0.0 mm/hr 0.00 in0.0 mm
10:30 AM 45.5°F7.5°C 41.0°F5.0°C 84% 2.0 mph N3.2 kmh N 3.0 mph4.8 kmh 30.33 in1027.1 mb 0.00 in0.0 mm 0.00 in/hr0.0 mm/hr 0.00 in0.0 mm
10:40 AM 46.0°F7.8°C 41.1°F5.1°C 83% Calm Calm 5.0 mph8.0 kmh 30.33 in1027.1 mb 0.00 in0.0 mm 0.00 in/hr0.0 mm/hr 0.00 in0.0 mm
10:50 AM 46.3°F7.9°C 41.4°F5.2°C 83% 2.0 mph N3.2 kmh N 6.0 mph9.7 kmh 30.33 in1027.1 mb 0.00 in0.0 mm 0.00 in/hr0.0 mm/hr 0.00 in0.0 mm
11:00 AM 46.5°F8.1°C 41.3°F5.2°C 82% Calm Calm 5.0 mph8.0 kmh 30.33 in1027.1 mb 0.00 in0.0 mm 0.00 in/hr0.0 mm/hr 0.00 in0.0 mm
11:10 AM 47.0°F8.3°C 41.8°F5.4°C 82% 4.0 mph NNE6.4 kmh NNE 7.0 mph11.3 kmh 30.33 in1027.1 mb 0.00 in0.0 mm 0.00 in/hr0.0 mm/hr 0.00 in0.0 mm
11:20 AM 47.3°F8.5°C 42.1°F5.6°C 82% 3.0 mph N4.8 kmh N 7.0 mph11.3 kmh 30.33 in1027.1 mb 0.00 in0.0 mm 0.00 in/hr0.0 mm/hr 0.00 in0.0 mm
11:30 AM 47.6°F8.7°C 42.1°F5.6°C 81% Calm Calm 7.0 mph11.3 kmh 30.33 in1027.1 mb 0.00 in0.0 mm 0.00 in/hr0.0 mm/hr 0.00 in0.0 mm
11:40 AM 47.8°F8.8°C 42.3°F5.7°C 81% 2.0 mph N3.2 kmh N 7.0 mph11.3 kmh 30.33 in1027.1 mb 0.00 in0.0 mm 0.00 in/hr0.0 mm/hr 0.00 in0.0 mm
11:50 AM 48.2°F9.0°C 42.7°F5.9°C 81% Calm Calm 6.0 mph9.7 kmh 30.34 in1027.4 mb 0.00 in0.0 mm 0.00 in/hr0.0 mm/hr 0.00 in0.0 mm
12:00 PM 48.8°F9.3°C 42.9°F6.1°C 80% Calm Calm 6.0 mph9.7 kmh 30.34 in1027.4 mb 0.00 in0.0 mm 0.00 in/hr0.0 mm/hr 0.00 in0.0 mm
12:10 PM 49.5°F9.7°C 43.6°F6.4°C 80% 2.0 mph N3.2 kmh N 4.0 mph6.4 kmh 30.34 in1027.4 mb 0.00 in0.0 mm 0.00 in/hr0.0 mm/hr 0.00 in0.0 mm
12:20 PM 50.4°F10.2°C 44.1°F6.7°C 79% Calm Calm 5.0 mph8.0 kmh 30.34 in1027.4 mb 0.00 in0.0 mm 0.00 in/hr0.0 mm/hr 0.00 in0.0 mm
12:30 PM 51.1°F10.6°C 44.2°F6.8°C 77% Calm Calm 7.0 mph11.3 kmh 30.34 in1027.4 mb 0.00 in0.0 mm 0.00 in/hr0.0 mm/hr 0.00 in0.0 mm
12:40 PM 51.5°F10.8°C 44.2°F6.8°C 76% Calm Calm 7.0 mph11.3 kmh 30.34 in1027.4 mb 0.00 in0.0 mm 0.00 in/hr0.0 mm/hr 0.00 in0.0 mm
12:50 PM 51.6°F10.9°C 44.6°F7.0°C 77% Calm Calm 6.0 mph9.7 kmh 30.34 in1027.4 mb 0.00 in0.0 mm 0.00 in/hr0.0 mm/hr 0.00 in0.0 mm
01:00 PM 51.4°F10.8°C 44.1°F6.7°C 76% 3.0 mph NW4.8 kmh NW 7.0 mph11.3 kmh 30.34 in1027.4 mb 0.00 in0.0 mm 0.00 in/hr0.0 mm/hr 0.00 in0.0 mm
01:10 PM 51.5°F10.8°C 44.2°F6.8°C 76% Calm Calm 6.0 mph9.7 kmh 30.33 in1027.1 mb 0.00 in0.0 mm 0.00 in/hr0.0 mm/hr 0.00 in0.0 mm
01:20 PM 51.3°F10.7°C 43.7°F6.5°C 75% 3.0 mph N4.8 kmh N 10.0 mph16.1 kmh 30.33 in1027.1 mb 0.00 in0.0 mm 0.00 in/hr0.0 mm/hr 0.00 in0.0 mm
01:30 PM 51.3°F10.7°C 43.7°F6.5°C 75% 6.0 mph NNW9.7 kmh NNW 9.0 mph14.5 kmh 30.33 in1027.1 mb 0.00 in0.0 mm 0.00 in/hr0.0 mm/hr 0.00 in0.0 mm
01:40 PM 51.1°F10.6°C 43.8°F6.6°C 76% 5.0 mph N8.0 kmh N 10.0 mph16.1 kmh 30.32 in1026.8 mb 0.00 in0.0 mm 0.00 in/hr0.0 mm/hr 0.00 in0.0 mm
01:50 PM 51.1°F10.6°C 43.8°F6.6°C 76% 4.0 mph NE6.4 kmh NE 6.0 mph9.7 kmh 30.32 in1026.8 mb 0.00 in0.0 mm 0.00 in/hr0.0 mm/hr 0.00 in0.0 mm
02:00 PM 51.4°F10.8°C 43.8°F6.6°C 75% 7.0 mph NE11.3 kmh NE 10.0 mph16.1 kmh 30.32 in1026.8 mb 0.00 in0.0 mm 0.00 in/hr0.0 mm/hr 0.00 in0.0 mm
02:10 PM 51.6°F10.9°C 44.3°F6.8°C 76% 2.0 mph NNE3.2 kmh NNE 6.0 mph9.7 kmh 30.31 in1026.4 mb 0.00 in0.0 mm 0.00 in/hr0.0 mm/hr 0.00 in0.0 mm
02:20 PM 52.0°F11.1°C 44.0°F6.7°C 74% 5.0 mph N8.0 kmh N 10.0 mph16.1 kmh 30.31 in1026.4 mb 0.00 in0.0 mm 0.00 in/hr0.0 mm/hr 0.00 in0.0 mm
02:30 PM 52.4°F11.3°C 44.7°F7.1°C 75% 1.0 mph NNE1.6 kmh NNE 6.0 mph9.7 kmh 30.31 in1026.4 mb 0.00 in0.0 mm 0.00 in/hr0.0 mm/hr 0.00 in0.0 mm
02:40 PM 52.4°F11.3°C 44.4°F6.9°C 74% 1.0 mph NNE1.6 kmh NNE 7.0 mph11.3 kmh 30.31 in1026.4 mb 0.00 in0.0 mm 0.00 in/hr0.0 mm/hr 0.00 in0.0 mm
02:50 PM 52.3°F11.3°C 44.3°F6.8°C 74% 2.0 mph NNE3.2 kmh NNE 9.0 mph14.5 kmh 30.31 in1026.4 mb 0.00 in0.0 mm 0.00 in/hr0.0 mm/hr 0.00 in0.0 mm
03:00 PM 52.4°F11.3°C 44.0°F6.7°C 73% 1.0 mph NE1.6 kmh NE 5.0 mph8.0 kmh 30.31 in1026.4 mb 0.00 in0.0 mm 0.00 in/hr0.0 mm/hr 0.00 in0.0 mm
03:10 PM 52.4°F11.3°C 44.0°F6.7°C 73% 5.0 mph N8.0 kmh N 9.0 mph14.5 kmh 30.30 in1026.1 mb 0.00 in0.0 mm 0.00 in/hr0.0 mm/hr 0.00 in0.0 mm
03:20 PM 52.4°F11.3°C 44.0°F6.7°C 73% Calm Calm 9.0 mph14.5 kmh 30.30 in1026.1 mb 0.00 in0.0 mm 0.00 in/hr0.0 mm/hr 0.00 in0.0 mm
03:30 PM 52.8°F11.6°C 44.0°F6.7°C 72% Calm Calm 5.0 mph8.0 kmh 30.30 in1026.1 mb 0.00 in0.0 mm 0.00 in/hr0.0 mm/hr 0.00 in0.0 mm
03:40 PM 53.0°F11.7°C 43.9°F6.6°C 71% Calm Calm 8.0 mph12.9 kmh 30.30 in1026.1 mb 0.00 in0.0 mm 0.00 in/hr0.0 mm/hr 0.00 in0.0 mm
03:50 PM 52.7°F11.5°C 43.6°F6.4°C 71% Calm Calm 9.0 mph14.5 kmh 30.31 in1026.4 mb 0.00 in0.0 mm 0.00 in/hr0.0 mm/hr 0.00 in0.0 mm
04:00 PM 52.8°F11.6°C 44.0°F6.7°C 72% 3.0 mph NE4.8 kmh NE 7.0 mph11.3 kmh 30.30 in1026.1 mb 0.00 in0.0 mm 0.00 in/hr0.0 mm/hr 0.00 in0.0 mm
04:10 PM 52.9°F11.6°C 44.1°F6.7°C 72% 5.0 mph NNE8.0 kmh NNE 10.0 mph16.1 kmh 30.30 in1026.1 mb 0.00 in0.0 mm 0.00 in/hr0.0 mm/hr 0.00 in0.0 mm
04:20 PM 52.9°F11.6°C 44.5°F6.9°C 73% 1.0 mph N1.6 kmh N 9.0 mph14.5 kmh 30.30 in1026.1 mb 0.00 in0.0 mm 0.00 in/hr0.0 mm/hr 0.00 in0.0 mm
04:30 PM 53.1°F11.7°C 44.3°F6.8°C 72% 2.0 mph NE3.2 kmh NE 3.0 mph4.8 kmh 30.30 in1026.1 mb 0.00 in0.0 mm 0.00 in/hr0.0 mm/hr 0.00 in0.0 mm
04:40 PM 53.5°F11.9°C 44.3°F6.8°C 71% Calm Calm 6.0 mph9.7 kmh 30.30 in1026.1 mb 0.00 in0.0 mm 0.00 in/hr0.0 mm/hr 0.00 in0.0 mm
04:50 PM 53.5°F11.9°C 44.3°F6.8°C 71% 7.0 mph NE11.3 kmh NE 10.0 mph16.1 kmh 30.29 in1025.7 mb 0.00 in0.0 mm 0.00 in/hr0.0 mm/hr 0.00 in0.0 mm
05:00 PM 53.5°F11.9°C 44.3°F6.8°C 71% 7.0 mph NE11.3 kmh NE 10.0 mph16.1 kmh 30.29 in1025.7 mb 0.00 in0.0 mm 0.00 in/hr0.0 mm/hr 0.00 in0.0 mm
05:10 PM 53.6°F12.0°C 44.4°F6.9°C 71% 3.0 mph NE4.8 kmh NE 6.0 mph9.7 kmh 30.29 in1025.7 mb 0.00 in0.0 mm 0.00 in/hr0.0 mm/hr 0.00 in0.0 mm
05:20 PM 53.2°F11.8°C 43.7°F6.5°C 70% 2.0 mph NNE3.2 kmh NNE 9.0 mph14.5 kmh 30.30 in1026.1 mb 0.00 in0.0 mm 0.00 in/hr0.0 mm/hr 0.00 in0.0 mm
05:30 PM 52.4°F11.3°C 43.3°F6.3°C 71% 3.0 mph NE4.8 kmh NE 9.0 mph14.5 kmh 30.30 in1026.1 mb 0.00 in0.0 mm 0.00 in/hr0.0 mm/hr 0.00 in0.0 mm
05:40 PM 52.0°F11.1°C 42.9°F6.1°C 71% 3.0 mph NE4.8 kmh NE 6.0 mph9.7 kmh 30.30 in1026.1 mb 0.00 in0.0 mm 0.00 in/hr0.0 mm/hr 0.00 in0.0 mm
05:50 PM 51.8°F11.0°C 43.1°F6.2°C 72% 5.0 mph NNE8.0 kmh NNE 10.0 mph16.1 kmh 30.30 in1026.1 mb 0.00 in0.0 mm 0.00 in/hr0.0 mm/hr 0.00 in0.0 mm
06:00 PM 51.7°F10.9°C 43.3°F6.3°C 73% 2.0 mph N3.2 kmh N 5.0 mph8.0 kmh 30.30 in1026.1 mb 0.00 in0.0 mm 0.00 in/hr0.0 mm/hr 0.00 in0.0 mm
06:10 PM 51.6°F10.9°C 43.2°F6.2°C 73% 4.0 mph NE6.4 kmh NE 10.0 mph16.1 kmh 30.29 in1025.7 mb 0.00 in0.0 mm 0.00 in/hr0.0 mm/hr 0.00 in0.0 mm
06:20 PM 51.5°F10.8°C 43.1°F6.2°C 73% 5.0 mph NE8.0 kmh NE 6.0 mph9.7 kmh 30.29 in1025.7 mb 0.00 in0.0 mm 0.00 in/hr0.0 mm/hr 0.00 in0.0 mm
06:30 PM 51.2°F10.7°C 43.2°F6.2°C 74% 2.0 mph NNE3.2 kmh NNE 8.0 mph12.9 kmh 30.29 in1025.7 mb 0.00 in0.0 mm 0.00 in/hr0.0 mm/hr 0.00 in0.0 mm
06:40 PM 50.9°F10.5°C 42.9°F6.1°C 74% 2.0 mph NNE3.2 kmh NNE 6.0 mph9.7 kmh 30.29 in1025.7 mb 0.00 in0.0 mm 0.00 in/hr0.0 mm/hr 0.00 in0.0 mm
06:50 PM 50.7°F10.4°C 43.1°F6.2°C 75% 3.0 mph N4.8 kmh N 5.0 mph8.0 kmh 30.29 in1025.7 mb 0.00 in0.0 mm 0.00 in/hr0.0 mm/hr 0.00 in0.0 mm
07:00 PM 50.5°F10.3°C 42.9°F6.1°C 75% 2.0 mph ENE3.2 kmh ENE 7.0 mph11.3 kmh 30.29 in1025.7 mb 0.00 in0.0 mm 0.00 in/hr0.0 mm/hr 0.00 in0.0 mm
07:10 PM 50.4°F10.2°C 42.8°F6.0°C 75% Calm Calm 6.0 mph9.7 kmh 30.30 in1026.1 mb 0.00 in0.0 mm 0.00 in/hr0.0 mm/hr 0.00 in0.0 mm
07:20 PM 50.3°F10.2°C 42.7°F5.9°C 75% Calm Calm 9.0 mph14.5 kmh 30.30 in1026.1 mb 0.00 in0.0 mm 0.00 in/hr0.0 mm/hr 0.00 in0.0 mm
07:30 PM 50.2°F10.1°C 42.6°F5.9°C 75% 3.0 mph N4.8 kmh N 8.0 mph12.9 kmh 30.30 in1026.1 mb 0.00 in0.0 mm 0.00 in/hr0.0 mm/hr 0.00 in0.0 mm
07:40 PM 50.0°F10.0°C 42.4°F5.8°C 75% Calm Calm 6.0 mph9.7 kmh 30.30 in1026.1 mb 0.00 in0.0 mm 0.00 in/hr0.0 mm/hr 0.00 in0.0 mm
07:50 PM 49.9°F9.9°C 42.3°F5.7°C 75% 5.0 mph N8.0 kmh N 7.0 mph11.3 kmh 30.30 in1026.1 mb 0.00 in0.0 mm 0.00 in/hr0.0 mm/hr 0.00 in0.0 mm
08:00 PM 49.7°F9.8°C 42.1°F5.6°C 75% 3.0 mph NNE4.8 kmh NNE 5.0 mph8.0 kmh 30.30 in1026.1 mb 0.00 in0.0 mm 0.00 in/hr0.0 mm/hr 0.00 in0.0 mm
08:10 PM 49.6°F9.8°C 42.4°F5.8°C 76% 2.0 mph N3.2 kmh N 8.0 mph12.9 kmh 30.30 in1026.1 mb 0.00 in0.0 mm 0.00 in/hr0.0 mm/hr 0.00 in0.0 mm
08:20 PM 49.5°F9.7°C 42.3°F5.7°C 76% 3.0 mph NNE4.8 kmh NNE 7.0 mph11.3 kmh 30.30 in1026.1 mb 0.00 in0.0 mm 0.00 in/hr0.0 mm/hr 0.00 in0.0 mm
08:30 PM 49.4°F9.7°C 42.5°F5.8°C 77% Calm Calm 7.0 mph11.3 kmh 30.30 in1026.1 mb 0.00 in0.0 mm 0.00 in/hr0.0 mm/hr 0.00 in0.0 mm
08:40 PM 49.3°F9.6°C 42.4°F5.8°C 77% 4.0 mph NNE6.4 kmh NNE 5.0 mph8.0 kmh 30.31 in1026.4 mb 0.00 in0.0 mm 0.00 in/hr0.0 mm/hr 0.00 in0.0 mm
08:50 PM 49.2°F9.6°C 42.3°F5.7°C 77% Calm Calm 4.0 mph6.4 kmh 30.31 in1026.4 mb 0.00 in0.0 mm 0.00 in/hr0.0 mm/hr 0.00 in0.0 mm
09:00 PM 49.1°F9.5°C 42.2°F5.7°C 77% 7.0 mph NNE11.3 kmh NNE 7.0 mph11.3 kmh 30.31 in1026.4 mb 0.00 in0.0 mm 0.00 in/hr0.0 mm/hr 0.00 in0.0 mm
09:10 PM 49.1°F9.5°C 42.2°F5.7°C 77% 2.0 mph N3.2 kmh N 8.0 mph12.9 kmh 30.31 in1026.4 mb 0.00 in0.0 mm 0.00 in/hr0.0 mm/hr 0.00 in0.0 mm
09:20 PM 49.0°F9.4°C 42.1°F5.6°C 77% Calm Calm 6.0 mph9.7 kmh 30.31 in1026.4 mb 0.00 in0.0 mm 0.00 in/hr0.0 mm/hr 0.00 in0.0 mm
09:30 PM 48.9°F9.4°C 42.4°F5.8°C 78% Calm Calm 6.0 mph9.7 kmh 30.31 in1026.4 mb 0.00 in0.0 mm 0.00 in/hr0.0 mm/hr 0.00 in0.0 mm
09:40 PM 48.8°F9.3°C 42.3°F5.7°C 78% Calm Calm 4.0 mph6.4 kmh 30.31 in1026.4 mb 0.00 in0.0 mm 0.00 in/hr0.0 mm/hr 0.00 in0.0 mm
09:50 PM 48.7°F9.3°C 42.2°F5.7°C 78% 1.0 mph NNE1.6 kmh NNE 3.0 mph4.8 kmh 30.31 in1026.4 mb 0.00 in0.0 mm 0.00 in/hr0.0 mm/hr 0.00 in0.0 mm
10:00 PM 48.7°F9.3°C 42.2°F5.7°C 78% 6.0 mph NE9.7 kmh NE 8.0 mph12.9 kmh 30.31 in1026.4 mb 0.00 in0.0 mm 0.00 in/hr0.0 mm/hr 0.00 in0.0 mm
10:10 PM 48.7°F9.3°C 42.2°F5.7°C 78% 5.0 mph ENE8.0 kmh ENE 7.0 mph11.3 kmh 30.31 in1026.4 mb 0.00 in0.0 mm 0.00 in/hr0.0 mm/hr 0.00 in0.0 mm
10:20 PM 48.5°F9.2°C 42.0°F5.6°C 78% 5.0 mph NE8.0 kmh NE 7.0 mph11.3 kmh 30.31 in1026.4 mb 0.00 in0.0 mm 0.00 in/hr0.0 mm/hr 0.00 in0.0 mm
10:30 PM 48.5°F9.2°C 42.0°F5.6°C 78% 2.0 mph ENE3.2 kmh ENE 10.0 mph16.1 kmh 30.31 in1026.4 mb 0.00 in0.0 mm 0.00 in/hr0.0 mm/hr 0.00 in0.0 mm
10:40 PM 48.5°F9.2°C 42.0°F5.6°C 78% Calm Calm 2.0 mph3.2 kmh 30.31 in1026.4 mb 0.00 in0.0 mm 0.00 in/hr0.0 mm/hr 0.00 in0.0 mm
10:50 PM 48.3°F9.1°C 41.8°F5.4°C 78% 2.0 mph ENE3.2 kmh ENE 3.0 mph4.8 kmh 30.30 in1026.1 mb 0.00 in0.0 mm 0.00 in/hr0.0 mm/hr 0.00 in0.0 mm
11:00 PM 48.3°F9.1°C 42.1°F5.6°C 79% Calm Calm 2.0 mph3.2 kmh 30.30 in1026.1 mb 0.00 in0.0 mm 0.00 in/hr0.0 mm/hr 0.00 in0.0 mm
11:10 PM 48.1°F8.9°C 41.9°F5.5°C 79% Calm Calm -- 30.30 in1026.1 mb 0.00 in0.0 mm 0.00 in/hr0.0 mm/hr 0.00 in0.0 mm
11:20 PM 48.0°F8.9°C 41.8°F5.4°C 79% Calm Calm 5.0 mph8.0 kmh 30.30 in1026.1 mb 0.00 in0.0 mm 0.00 in/hr0.0 mm/hr 0.00 in0.0 mm
11:30 PM 48.0°F8.9°C 41.5°F5.3°C 78% Calm Calm 3.0 mph4.8 kmh 30.30 in1026.1 mb 0.00 in0.0 mm 0.00 in/hr0.0 mm/hr 0.00 in0.0 mm
11:40 PM 48.0°F8.9°C 41.5°F5.3°C 78% Calm Calm 4.0 mph6.4 kmh 30.30 in1026.1 mb 0.00 in0.0 mm 0.00 in/hr0.0 mm/hr 0.00 in0.0 mm
11:50 PM 47.6°F8.7°C 41.1°F5.1°C 78% Calm Calm -- 30.30 in1026.1 mb 0.00 in0.0 mm 0.00 in/hr0.0 mm/hr 0.00 in0.0 mm